Time;durP1;ratioP1;P1;durP2;ratioP2;P2;SDS_P1;SDS_P2;PMS_P1;PMS_P2;Temp;Humidity;BMP_temperature;BMP_pressure;BME280_temperature;BME280_humidity;BME280_pressure;Samples;Min_cycle;Max_cycle;Signal;HPM_P1;HPM_P2
2022/06/10 00:01:17;;;;;;;2.60;1.00;;;15.50;59.10;;;;;;4991319;28;20268;-59
2022/06/10 00:03:49;;;;;;;1.65;1.00;;;15.60;59.10;;;;;;5008402;28;20205;-60
2022/06/10 00:06:20;;;;;;;1.40;1.15;;;15.60;59.20;;;;;;4998812;28;20240;-59
2022/06/10 00:08:53;;;;;;;1.30;0.95;;;15.60;59.10;;;;;;4990664;28;20723;-58
2022/06/10 00:11:24;;;;;;;1.10;1.00;;;15.60;59.20;;;;;;4991520;28;20213;-58
2022/06/10 00:13:55;;;;;;;0.93;0.73;;;15.60;59.10;;;;;;4991395;28;20201;-58
2022/06/10 00:16:26;;;;;;;1.40;1.00;;;15.60;59.10;;;;;;4991883;28;20208;-59
2022/06/10 00:18:57;;;;;;;2.35;1.20;;;15.60;59.10;;;;;;4991276;28;20697;-59
2022/06/10 00:21:28;;;;;;;1.33;0.90;;;15.60;59.10;;;;;;4991839;28;20197;-60
2022/06/10 00:24:01;;;;;;;1.50;1.10;;;15.60;59.30;;;;;;5002834;28;20184;-61
2022/06/10 00:26:32;;;;;;;1.55;1.00;;;15.60;59.30;;;;;;5029593;28;20254;-58
2022/06/10 00:29:03;;;;;;;0.98;0.88;;;15.70;59.30;;;;;;5030111;28;20199;-59
2022/06/10 00:31:34;;;;;;;1.45;0.85;;;15.70;59.30;;;;;;5029573;28;20196;-58
2022/06/10 00:34:06;;;;;;;0.95;0.88;;;15.70;59.20;;;;;;5030383;28;20207;-59
2022/06/10 00:36:36;;;;;;;1.05;0.82;;;15.70;59.20;;;;;;5000278;28;20206;-60
2022/06/10 00:39:09;;;;;;;1.13;0.70;;;15.80;59.20;;;;;;5003199;28;20193;-58
2022/06/10 00:41:44;;;;;;;1.52;0.90;;;15.80;59.20;;;;;;5011322;28;20208;-59
2022/06/10 00:44:33;;;;;;;2.28;0.80;;;15.80;59.20;;;;;;5018359;28;20195;-59
2022/06/10 00:47:05;;;;;;;1.95;0.80;;;15.80;59.20;;;;;;5017581;28;20716;-58
2022/06/10 00:49:35;;;;;;;1.63;0.93;;;15.90;59.50;;;;;;5010194;28;20212;-56
2022/06/10 00:52:07;;;;;;;1.08;0.80;;;15.90;60.30;;;;;;5009586;28;20200;-61
2022/06/10 00:54:43;;;;;;;1.55;0.95;;;15.90;59.60;;;;;;5022031;28;20542;-58
2022/06/10 00:57:17;;;;;;;1.50;1.10;;;15.90;59.60;;;;;;5029984;28;20231;-58
2022/06/10 00:59:51;;;;;;;1.15;0.70;;;15.90;59.50;;;;;;5030534;28;20254;-59
2022/06/10 01:02:24;;;;;;;0.85;0.60;;;16.00;59.50;;;;;;5030507;28;20200;-57
2022/06/10 01:04:57;;;;;;;1.08;0.80;;;16.00;59.40;;;;;;5028879;28;20192;-59
2022/06/10 01:07:31;;;;;;;1.25;0.88;;;16.00;59.40;;;;;;5010225;28;20213;-57
2022/06/10 01:10:06;;;;;;;1.20;0.90;;;16.00;59.20;;;;;;5009573;28;20239;-59
2022/06/10 01:13:09;;;;;;;0.88;0.70;;;16.00;59.10;;;;;;5010833;28;20611;-60
2022/06/10 01:15:45;;;;;;;0.98;0.80;;;16.10;59.10;;;;;;5010262;28;20197;-59
2022/06/10 01:18:28;;;;;;;0.70;0.70;;;16.10;59.00;;;;;;5011069;28;20217;-59
2022/06/10 01:21:15;;;;;;;1.63;0.90;;;16.10;58.90;;;;;;5010720;28;20201;-60
2022/06/10 01:24:23;;;;;;;1.30;1.02;;;16.10;58.90;;;;;;5014532;28;20192;-60
2022/06/10 01:30:33;;;;;;;1.42;0.80;;;16.20;58.90;;;;;;5030524;28;20211;-58
2022/06/10 01:33:17;;;;;;;1.05;0.82;;;16.20;58.70;;;;;;5029927;28;20656;-58
2022/06/10 01:35:56;;;;;;;2.13;1.08;;;16.20;58.70;;;;;;5008305;28;20198;-58
2022/06/10 01:38:31;;;;;;;1.27;0.88;;;16.20;58.70;;;;;;4990118;28;20217;-59
2022/06/10 01:41:10;;;;;;;1.17;0.77;;;16.20;58.70;;;;;;4990724;28;20197;-59
2022/06/10 01:43:52;;;;;;;1.08;0.70;;;16.20;58.70;;;;;;5003133;28;20196;-58
2022/06/10 01:46:28;;;;;;;1.00;0.70;;;16.30;58.70;;;;;;5011368;28;20228;-59
2022/06/10 01:49:10;;;;;;;1.30;0.85;;;16.30;58.60;;;;;;5013658;28;20283;-60
2022/06/10 01:51:49;;;;;;;0.60;0.60;;;16.30;58.70;;;;;;5016769;28;20192;-59
2022/06/10 01:54:24;;;;;;;2.85;0.95;;;16.30;58.80;;;;;;5033264;28;20648;-59
2022/06/10 01:56:59;;;;;;;1.33;1.00;;;16.30;59.30;;;;;;5033633;28;20227;-60
2022/06/10 01:59:34;;;;;;;1.20;0.80;;;16.30;58.60;;;;;;5032665;28;20200;-58
2022/06/10 02:02:08;;;;;;;1.23;1.02;;;16.30;58.60;;;;;;5033205;28;20207;-57
2022/06/10 02:04:46;;;;;;;0.70;0.65;;;16.40;58.60;;;;;;5032671;28;20571;-57
2022/06/10 02:07:20;;;;;;;0.63;0.50;;;16.40;58.50;;;;;;4993547;28;20233;-58
2022/06/10 02:09:53;;;;;;;1.27;0.70;;;16.40;58.30;;;;;;4993406;28;20204;-60
2022/06/10 02:12:29;;;;;;;1.70;0.90;;;16.40;58.20;;;;;;4993837;28;20609;-58
2022/06/10 02:15:04;;;;;;;1.25;0.70;;;16.50;58.10;;;;;;4993123;28;20572;-58
2022/06/10 02:17:41;;;;;;;1.02;0.68;;;16.50;58.00;;;;;;4993218;28;20220;-59
2022/06/10 02:20:19;;;;;;;1.27;0.90;;;16.50;57.80;;;;;;4993145;28;20201;-57
2022/06/10 02:22:51;;;;;;;1.55;0.80;;;16.50;57.70;;;;;;4992955;28;20224;-59
2022/06/10 02:25:26;;;;;;;0.68;0.63;;;16.60;57.60;;;;;;5026855;28;20192;-57
2022/06/10 02:28:00;;;;;;;1.67;0.85;;;16.60;57.40;;;;;;5032729;28;20220;-57
2022/06/10 02:30:35;;;;;;;0.80;0.60;;;16.60;57.40;;;;;;5033428;28;20207;-57
2022/06/10 02:33:06;;;;;;;1.80;0.95;;;16.60;57.30;;;;;;5032030;28;20201;-57
2022/06/10 02:35:46;;;;;;;1.13;0.80;;;16.60;57.20;;;;;;5018215;28;20205;-59
2022/06/10 02:38:27;;;;;;;1.05;0.60;;;16.60;57.20;;;;;;4992688;28;20213;-57
2022/06/10 02:41:03;;;;;;;1.35;0.80;;;16.70;57.20;;;;;;4992714;28;20201;-58
2022/06/10 02:43:40;;;;;;;0.73;0.55;;;16.60;57.00;;;;;;4993236;28;20238;-57
2022/06/10 02:46:14;;;;;;;1.10;0.80;;;16.70;57.00;;;;;;4996200;28;20220;-59
2022/06/10 02:48:51;;;;;;;1.27;0.93;;;16.70;57.00;;;;;;5006898;28;20221;-56
2022/06/10 02:51:23;;;;;;;1.33;0.70;;;16.70;56.80;;;;;;5002929;28;20201;-56
2022/06/10 02:53:54;;;;;;;0.68;0.60;;;16.80;56.80;;;;;;5012190;28;20197;-57
2022/06/10 02:56:27;;;;;;;1.10;0.60;;;16.80;56.80;;;;;;5027126;28;20215;-57
2022/06/10 03:02:01;;;;;;;4.00;0.80;;;16.80;56.80;;;;;;4993874;28;20193;-55
2022/06/10 03:04:43;;;;;;;0.80;0.60;;;16.90;56.80;;;;;;4992341;28;20201;-55
2022/06/10 03:07:43;;;;;;;1.17;0.60;;;16.90;56.70;;;;;;5000613;28;20261;-55
2022/06/10 03:10:25;;;;;;;0.82;0.60;;;16.90;56.70;;;;;;5031396;28;20200;-56
2022/06/10 03:13:23;;;;;;;0.73;0.50;;;16.90;56.70;;;;;;5031460;28;20199;-57
2022/06/10 03:16:05;;;;;;;0.70;0.57;;;16.90;56.70;;;;;;5031818;28;20207;-65
2022/06/10 03:18:48;;;;;;;0.65;0.60;;;17.00;56.70;;;;;;5032134;28;20224;-55
2022/06/10 03:21:27;;;;;;;1.17;0.70;;;17.00;56.70;;;;;;5031700;28;20200;-55
2022/06/10 03:24:10;;;;;;;1.73;0.60;;;17.00;56.70;;;;;;5031624;28;20239;-59
2022/06/10 03:26:48;;;;;;;0.90;0.60;;;17.00;56.60;;;;;;5031159;28;20223;-56
2022/06/10 03:29:36;;;;;;;0.75;0.60;;;17.00;56.60;;;;;;5030474;28;20828;-56
2022/06/10 03:32:13;;;;;;;0.90;0.75;;;17.10;56.60;;;;;;5031539;28;20204;-58
2022/06/10 03:34:48;;;;;;;1.25;0.80;;;17.10;56.70;;;;;;5031766;28;20207;-56
2022/06/10 03:37:22;;;;;;;1.00;0.68;;;17.10;56.80;;;;;;4991060;28;20213;-53
2022/06/10 03:39:59;;;;;;;0.82;0.55;;;17.10;56.70;;;;;;5011539;28;20197;-57
2022/06/10 03:42:30;;;;;;;0.73;0.50;;;17.20;56.90;;;;;;5011463;28;20227;-59
2022/06/10 03:45:02;;;;;;;0.65;0.50;;;17.20;56.80;;;;;;5011728;28;20197;-56
2022/06/10 03:47:34;;;;;;;0.75;0.55;;;17.20;56.70;;;;;;5010988;28;20681;-57
2022/06/10 03:50:10;;;;;;;1.38;0.60;;;17.20;56.60;;;;;;5011928;28;20196;-58
2022/06/10 03:52:41;;;;;;;0.75;0.50;;;17.30;56.50;;;;;;5010971;28;20204;-58
2022/06/10 03:55:17;;;;;;;0.40;0.30;;;17.30;56.40;;;;;;5013354;28;20670;-58
2022/06/10 03:57:49;;;;;;;0.77;0.57;;;17.30;56.40;;;;;;5011407;28;20216;-61
2022/06/10 04:00:22;;;;;;;0.75;0.50;;;17.30;56.40;;;;;;5010770;28;20201;-54
2022/06/10 04:02:53;;;;;;;0.95;0.70;;;17.30;56.30;;;;;;5012055;28;20203;-55
2022/06/10 04:05:24;;;;;;;0.80;0.50;;;17.40;56.40;;;;;;5010848;28;20216;-59
2022/06/10 04:07:54;;;;;;;0.43;0.40;;;17.40;56.20;;;;;;5016172;28;20234;-54
2022/06/10 04:10:29;;;;;;;0.60;0.50;;;17.40;56.10;;;;;;5029061;28;20196;-54
2022/06/10 04:13:00;;;;;;;0.70;0.50;;;17.40;56.00;;;;;;5030439;28;20564;-55
2022/06/10 04:15:32;;;;;;;0.40;0.38;;;17.40;56.00;;;;;;5029761;28;20211;-56
2022/06/10 04:18:04;;;;;;;0.60;0.55;;;17.40;55.90;;;;;;5030933;28;20220;-59
2022/06/10 04:20:37;;;;;;;0.63;0.40;;;17.40;55.80;;;;;;5030099;28;20670;-57
2022/06/10 04:23:09;;;;;;;0.63;0.43;;;17.40;55.80;;;;;;5030959;28;20196;-55
2022/06/10 04:25:43;;;;;;;0.63;0.57;;;17.40;55.70;;;;;;5029657;28;20207;-56
2022/06/10 04:28:14;;;;;;;0.45;0.40;;;17.40;55.70;;;;;;5029095;28;20234;-55
2022/06/10 04:30:47;;;;;;;0.60;0.50;;;17.40;55.60;;;;;;5028741;28;20200;-60
2022/06/10 04:33:18;;;;;;;0.55;0.40;;;17.40;55.60;;;;;;5029584;28;20219;-55
2022/06/10 04:35:50;;;;;;;0.60;0.50;;;17.40;55.60;;;;;;5022240;28;20204;-56
2022/06/10 04:38:24;;;;;;;0.70;0.40;;;17.40;55.50;;;;;;5009675;28;20251;-56
2022/06/10 04:40:58;;;;;;;0.38;0.30;;;17.40;55.40;;;;;;5010888;28;20208;-55
2022/06/10 04:43:28;;;;;;;0.55;0.47;;;17.40;55.40;;;;;;5011334;28;20197;-56
2022/06/10 04:46:01;;;;;;;0.75;0.43;;;17.40;55.40;;;;;;5029456;28;20270;-54
2022/06/10 04:48:32;;;;;;;0.52;0.43;;;17.30;55.30;;;;;;5030379;28;20220;-58
2022/06/10 04:51:02;;;;;;;0.35;0.35;;;17.30;55.30;;;;;;5029916;28;20199;-63
2022/06/10 04:53:33;;;;;;;0.85;0.50;;;17.30;55.30;;;;;;5029655;28;20200;-60
2022/06/10 04:56:06;;;;;;;0.50;0.32;;;17.30;55.30;;;;;;5030801;28;20215;-56
2022/06/10 04:58:37;;;;;;;0.60;0.50;;;17.30;55.30;;;;;;5030222;28;20212;-56
2022/06/10 05:01:08;;;;;;;0.40;0.40;;;17.30;55.30;;;;;;5030332;28;20192;-59
2022/06/10 05:03:39;;;;;;;0.50;0.40;;;17.30;55.20;;;;;;5030411;28;20207;-57
2022/06/10 05:06:10;;;;;;;0.50;0.50;;;17.20;55.20;;;;;;5007272;28;20206;-55
2022/06/10 05:08:40;;;;;;;0.70;0.40;;;17.20;55.30;;;;;;4998225;28;20573;-54
2022/06/10 05:11:13;;;;;;;0.68;0.40;;;17.20;55.20;;;;;;5009372;28;20201;-56
2022/06/10 05:13:43;;;;;;;0.63;0.50;;;17.20;55.20;;;;;;5010867;28;20235;-56
2022/06/10 05:16:15;;;;;;;0.52;0.40;;;17.20;55.20;;;;;;5010698;28;20668;-59
2022/06/10 05:18:46;;;;;;;1.55;0.50;;;17.20;55.20;;;;;;5010253;28;20217;-55
2022/06/10 05:21:17;;;;;;;0.57;0.57;;;17.10;55.10;;;;;;4992765;28;20309;-56
2022/06/10 05:23:48;;;;;;;0.60;0.55;;;17.10;55.10;;;;;;4994288;28;20197;-60
2022/06/10 05:26:20;;;;;;;0.80;0.60;;;17.10;55.10;;;;;;5001049;28;20201;-55
2022/06/10 05:28:51;;;;;;;0.50;0.50;;;17.10;55.10;;;;;;4993376;28;20221;-55
2022/06/10 05:31:22;;;;;;;0.75;0.50;;;17.10;55.00;;;;;;4993578;28;20275;-58
2022/06/10 05:36:39;;;;;;;0.80;0.60;;;17.00;54.90;;;;;;4998302;28;20211;-61
2022/06/10 05:39:10;;;;;;;0.50;0.50;;;17.00;54.80;;;;;;4993704;28;20677;-56
2022/06/10 05:44:29;;;;;;;0.50;0.50;;;17.00;54.70;;;;;;5012890;28;20331;-56
2022/06/10 05:47:00;;;;;;;0.60;0.52;;;17.00;54.70;;;;;;5014198;28;20709;-55
2022/06/10 05:49:32;;;;;;;0.52;0.50;;;16.90;54.60;;;;;;5014269;28;20197;-56
2022/06/10 05:52:02;;;;;;;0.50;0.50;;;16.90;54.60;;;;;;5013091;28;20555;-55
2022/06/10 05:54:33;;;;;;;0.40;0.40;;;16.90;54.50;;;;;;5013527;28;20235;-56
2022/06/10 05:57:06;;;;;;;0.40;0.40;;;16.90;54.40;;;;;;5015024;28;20720;-55
2022/06/10 05:59:37;;;;;;;0.52;0.50;;;16.90;54.40;;;;;;5012018;28;20189;-56
2022/06/10 06:02:09;;;;;;;0.40;0.40;;;16.90;54.40;;;;;;5013656;28;20201;-57
2022/06/10 06:04:40;;;;;;;0.65;0.40;;;16.90;54.30;;;;;;5013040;28;20200;-55
2022/06/10 06:07:11;;;;;;;0.50;0.50;;;16.90;54.30;;;;;;5020824;28;20240;-61
2022/06/10 06:09:42;;;;;;;1.15;0.40;;;16.80;54.20;;;;;;5033241;28;20203;-61
2022/06/10 06:12:15;;;;;;;0.60;0.60;;;16.80;54.20;;;;;;5033110;28;20623;-59
2022/06/10 06:14:45;;;;;;;0.70;0.43;;;16.80;54.10;;;;;;5032666;28;20576;-58
2022/06/10 06:17:17;;;;;;;0.50;0.50;;;16.80;54.20;;;;;;5031858;28;20231;-56
2022/06/10 06:19:48;;;;;;;0.50;0.50;;;16.80;54.80;;;;;;5031907;28;20200;-56
2022/06/10 06:22:19;;;;;;;0.60;0.50;;;16.80;54.20;;;;;;5031590;28;20192;-60
2022/06/10 06:24:49;;;;;;;0.47;0.47;;;16.80;54.20;;;;;;5030857;28;20197;-56
2022/06/10 06:27:22;;;;;;;0.40;0.40;;;16.80;54.30;;;;;;5031843;28;20235;-57
2022/06/10 06:29:53;;;;;;;0.95;0.60;;;16.70;54.30;;;;;;5031088;28;20196;-58
2022/06/10 06:32:23;;;;;;;0.52;0.50;;;16.70;54.30;;;;;;5031246;28;20196;-58
2022/06/10 06:34:54;;;;;;;0.30;0.30;;;16.70;54.30;;;;;;5030372;28;20236;-57
2022/06/10 06:37:25;;;;;;;0.30;0.30;;;16.70;54.40;;;;;;5013153;28;20233;-56
2022/06/10 06:39:56;;;;;;;0.52;0.28;;;16.70;54.50;;;;;;5013035;28;20284;-58
2022/06/10 06:42:28;;;;;;;0.40;0.40;;;16.70;54.50;;;;;;5012966;28;20197;-57
2022/06/10 06:44:59;;;;;;;0.52;0.50;;;16.70;54.60;;;;;;5012351;28;20196;-56
2022/06/10 06:47:30;;;;;;;0.30;0.30;;;16.70;54.60;;;;;;5012759;28;20233;-57
2022/06/10 06:50:00;;;;;;;0.32;0.30;;;16.70;54.60;;;;;;5012585;28;20216;-58
2022/06/10 06:52:31;;;;;;;0.68;0.22;;;16.60;54.60;;;;;;5012180;28;20208;-57
2022/06/10 06:55:02;;;;;;;0.40;0.40;;;16.60;54.60;;;;;;5012347;28;20201;-63
2022/06/10 06:57:34;;;;;;;0.75;0.30;;;16.60;54.60;;;;;;5011711;28;20229;-58
2022/06/10 07:00:07;;;;;;;0.50;0.32;;;16.60;54.60;;;;;;5013025;28;20724;-59
2022/06/10 07:02:38;;;;;;;0.63;0.40;;;16.60;54.60;;;;;;5012101;28;20197;-58
2022/06/10 07:05:10;;;;;;;0.40;0.30;;;16.60;54.60;;;;;;5014848;28;20200;-62
2022/06/10 07:07:41;;;;;;;0.65;0.35;;;16.60;54.60;;;;;;5011549;28;20235;-63
2022/06/10 07:10:15;;;;;;;1.02;0.32;;;16.60;54.70;;;;;;5012554;28;20255;-61
2022/06/10 07:12:48;;;;;;;0.82;0.47;;;16.50;54.70;;;;;;5012234;28;20194;-58
2022/06/10 07:15:19;;;;;;;1.42;0.30;;;16.60;54.70;;;;;;5011626;28;20197;-61
2022/06/10 07:17:50;;;;;;;0.30;0.30;;;16.50;54.70;;;;;;5011395;28;20282;-64
2022/06/10 07:20:25;;;;;;;0.75;0.50;;;16.50;54.80;;;;;;5011743;28;20197;-56
2022/06/10 07:22:57;;;;;;;0.30;0.30;;;16.50;55.00;;;;;;5012075;28;20204;-63
2022/06/10 07:25:28;;;;;;;0.50;0.38;;;16.50;55.00;;;;;;5012248;28;20236;-59
2022/06/10 07:28:01;;;;;;;0.88;0.40;;;16.50;55.10;;;;;;5014887;28;20669;-65
2022/06/10 07:30:33;;;;;;;1.48;0.50;;;16.50;55.00;;;;;;5011530;28;20201;-60
2022/06/10 07:33:04;;;;;;;0.57;0.40;;;16.40;55.10;;;;;;5011592;28;20204;-67
2022/06/10 07:35:35;;;;;;;0.47;0.25;;;16.40;55.10;;;;;;5012070;28;20200;-66
2022/06/10 07:38:06;;;;;;;0.40;0.32;;;16.40;55.10;;;;;;5012452;28;20220;-64
2022/06/10 07:43:27;;;;;;;0.70;0.30;;;16.40;55.20;;;;;;5011875;28;20200;-64
2022/06/10 07:45:58;;;;;;;0.75;0.38;;;16.40;55.30;;;;;;5011646;28;20197;-59
2022/06/10 07:48:29;;;;;;;0.40;0.30;;;16.40;55.30;;;;;;5011195;28;20233;-65
2022/06/10 07:51:00;;;;;;;0.63;0.43;;;16.40;55.30;;;;;;5012295;28;20208;-66
2022/06/10 07:53:31;;;;;;;0.50;0.30;;;16.40;55.40;;;;;;5012173;28;20196;-63
2022/06/10 07:56:02;;;;;;;0.30;0.30;;;16.40;55.50;;;;;;5014081;28;20588;-60
2022/06/10 07:58:35;;;;;;;0.40;0.40;;;16.40;55.50;;;;;;5011778;28;20267;-57
2022/06/10 08:01:05;;;;;;;2.15;0.40;;;16.30;55.80;;;;;;5011476;28;20671;-51
2022/06/10 08:03:36;;;;;;;1.48;0.30;;;16.30;56.10;;;;;;5010905;28;20196;-60
2022/06/10 08:06:07;;;;;;;1.77;0.45;;;16.30;57.00;;;;;;5011763;28;20572;-60
2022/06/10 08:08:38;;;;;;;0.47;0.30;;;16.40;56.60;;;;;;4997352;28;20226;-61
2022/06/10 08:11:09;;;;;;;0.88;0.40;;;16.40;56.70;;;;;;5010785;28;20201;-58
2022/06/10 08:13:41;;;;;;;1.20;0.55;;;16.40;56.60;;;;;;5019855;28;20192;-62
2022/06/10 08:16:12;;;;;;;1.73;0.50;;;16.40;56.50;;;;;;5030585;28;20821;-67
2022/06/10 08:18:43;;;;;;;0.52;0.40;;;16.40;56.50;;;;;;5029753;28;20220;-57
2022/06/10 08:24:01;;;;;;;1.60;0.40;;;16.40;56.50;;;;;;5029967;28;20207;-62
2022/06/10 08:26:32;;;;;;;0.98;0.50;;;16.40;56.50;;;;;;5015761;28;20189;-66
2022/06/10 08:29:05;;;;;;;2.63;0.30;;;16.40;56.50;;;;;;5009658;28;20274;-57
2022/06/10 08:31:36;;;;;;;2.85;0.50;;;16.40;56.50;;;;;;5011114;28;20280;-56
2022/06/10 08:34:07;;;;;;;1.23;0.50;;;16.40;56.60;;;;;;5011018;28;20704;-56
2022/06/10 08:36:38;;;;;;;0.80;0.45;;;16.30;56.50;;;;;;5010411;28;20646;-60
2022/06/10 08:39:08;;;;;;;0.63;0.32;;;16.30;56.50;;;;;;5010507;28;20196;-60
2022/06/10 08:41:50;;;;;;;0.88;0.38;;;16.30;56.50;;;;;;5011287;28;20204;-58
2022/06/10 08:44:40;;;;;;;1.40;0.60;;;16.30;56.50;;;;;;5009983;28;20201;-65
2022/06/10 08:47:31;;;;;;;0.95;0.45;;;16.30;56.50;;;;;;5010405;28;20221;-58
2022/06/10 08:50:23;;;;;;;1.63;0.47;;;16.30;56.50;;;;;;5010512;28;20193;-59
2022/06/10 08:53:04;;;;;;;0.52;0.32;;;16.30;56.40;;;;;;5011210;28;20201;-57
2022/06/10 08:55:44;;;;;;;0.77;0.60;;;16.30;56.40;;;;;;5010409;28;20207;-59
2022/06/10 08:58:20;;;;;;;4.07;0.65;;;16.30;56.40;;;;;;5014834;28;20216;-59
2022/06/10 09:00:55;;;;;;;1.30;0.30;;;16.30;56.40;;;;;;5014582;28;20193;-65
2022/06/10 09:03:31;;;;;;;1.02;0.40;;;16.20;56.40;;;;;;5032588;28;20198;-60
2022/06/10 09:06:04;;;;;;;0.80;0.40;;;16.20;56.40;;;;;;5024205;28;20208;-55
2022/06/10 09:08:38;;;;;;;0.65;0.60;;;16.20;57.00;;;;;;5016377;28;20221;-57
2022/06/10 09:11:19;;;;;;;0.95;0.30;;;16.20;56.40;;;;;;5034202;28;20207;-56
2022/06/10 09:13:54;;;;;;;1.13;0.40;;;16.20;56.40;;;;;;5034158;28;20200;-57
2022/06/10 09:16:37;;;;;;;1.00;0.40;;;16.20;56.50;;;;;;5034548;28;20191;-61
2022/06/10 09:19:13;;;;;;;1.20;0.50;;;16.20;56.50;;;;;;5033880;28;20656;-58
2022/06/10 09:21:50;;;;;;;2.42;0.52;;;16.20;56.40;;;;;;5034165;28;20536;-59
2022/06/10 09:24:28;;;;;;;0.77;0.40;;;16.10;56.40;;;;;;5002733;28;20206;-58
2022/06/10 09:27:06;;;;;;;0.68;0.35;;;16.10;56.40;;;;;;5014368;28;20216;-56
2022/06/10 09:29:38;;;;;;;1.20;0.40;;;16.10;56.40;;;;;;5013778;28;20224;-57
2022/06/10 09:32:16;;;;;;;1.15;0.30;;;16.10;56.40;;;;;;5014368;28;20300;-56
2022/06/10 09:34:58;;;;;;;0.43;0.30;;;16.10;56.40;;;;;;5014369;28;20649;-56
2022/06/10 09:37:37;;;;;;;1.65;0.30;;;16.10;56.50;;;;;;5014588;28;20587;-60
2022/06/10 09:43:22;;;;;;;1.23;0.40;;;16.10;56.50;;;;;;4995261;28;20277;-57
2022/06/10 09:45:59;;;;;;;0.65;0.40;;;16.10;56.50;;;;;;4994778;28;20204;-67
2022/06/10 09:48:46;;;;;;;0.50;0.30;;;16.10;56.60;;;;;;4994987;28;20229;-59
2022/06/10 09:51:24;;;;;;;2.25;0.60;;;16.00;56.70;;;;;;4994781;28;20256;-61
2022/06/10 09:54:18;;;;;;;0.35;0.20;;;16.00;56.70;;;;;;4997481;28;20193;-60
2022/06/10 09:57:22;;;;;;;0.80;0.40;;;16.00;56.90;;;;;;5009042;28;20676;-61
2022/06/10 10:00:00;;;;;;;0.57;0.40;;;16.00;57.00;;;;;;5003252;28;20201;-57
2022/06/10 10:02:46;;;;;;;1.25;0.57;;;16.00;57.10;;;;;;5016564;28;20189;-58
2022/06/10 10:05:38;;;;;;;0.63;0.40;;;16.00;57.30;;;;;;5024446;28;20292;-59
2022/06/10 10:08:25;;;;;;;1.10;0.45;;;16.00;57.40;;;;;;5013617;28;20228;-64
2022/06/10 10:10:59;;;;;;;0.50;0.40;;;16.00;57.50;;;;;;5012685;28;20197;-57
2022/06/10 10:13:58;;;;;;;1.85;0.57;;;16.00;57.60;;;;;;5030652;28;20188;-58
2022/06/10 10:16:37;;;;;;;0.52;0.30;;;16.00;57.60;;;;;;5032294;28;20676;-59
2022/06/10 10:19:21;;;;;;;0.30;0.30;;;16.00;57.60;;;;;;5033741;28;20199;-60
2022/06/10 10:22:04;;;;;;;0.90;0.40;;;16.00;57.60;;;;;;5032810;28;20203;-58
2022/06/10 10:24:40;;;;;;;2.58;0.30;;;16.00;57.80;;;;;;5033348;28;20192;-60
2022/06/10 10:27:18;;;;;;;0.25;0.25;;;16.00;57.90;;;;;;5033510;28;20216;-58
2022/06/10 10:29:51;;;;;;;0.55;0.40;;;16.00;58.00;;;;;;5032383;28;20224;-60
2022/06/10 10:32:25;;;;;;;1.25;0.38;;;16.00;58.00;;;;;;5032909;28;20587;-59
2022/06/10 10:35:03;;;;;;;1.10;0.30;;;16.00;58.00;;;;;;5031218;28;20279;-59
2022/06/10 10:37:38;;;;;;;2.03;0.40;;;16.00;58.10;;;;;;5013284;28;20216;-59
2022/06/10 10:40:18;;;;;;;1.77;0.20;;;16.00;58.00;;;;;;5013084;28;20687;-61
2022/06/10 10:42:50;;;;;;;0.50;0.25;;;16.00;58.10;;;;;;5012985;28;20205;-58
2022/06/10 10:45:24;;;;;;;1.13;0.32;;;16.00;58.00;;;;;;5012555;28;20679;-60
2022/06/10 10:48:01;;;;;;;0.65;0.35;;;16.00;58.10;;;;;;5012533;28;20220;-59
2022/06/10 10:50:36;;;;;;;1.08;0.30;;;16.00;58.00;;;;;;5012501;28;20212;-61
2022/06/10 10:53:24;;;;;;;3.10;0.20;;;16.00;58.10;;;;;;5012463;28;20192;-58
2022/06/10 10:55:59;;;;;;;2.15;0.40;;;15.90;58.00;;;;;;5012156;28;20200;-59
2022/06/10 10:58:32;;;;;;;2.33;0.32;;;16.00;58.10;;;;;;5011979;28;20212;-60
2022/06/10 11:01:07;;;;;;;0.30;0.30;;;16.00;58.10;;;;;;5012665;28;20203;-62
2022/06/10 11:03:48;;;;;;;0.50;0.30;;;15.90;58.00;;;;;;5012803;28;20200;-59
2022/06/10 11:06:28;;;;;;;0.40;0.40;;;16.00;58.10;;;;;;5012227;28;20211;-59
2022/06/10 11:09:03;;;;;;;1.23;0.35;;;15.90;58.00;;;;;;5011839;28;20232;-58
2022/06/10 11:11:37;;;;;;;0.88;0.32;;;15.90;58.00;;;;;;5023744;28;20199;-61
2022/06/10 11:14:21;;;;;;;1.00;0.30;;;15.90;58.00;;;;;;5031691;28;20231;-55
2022/06/10 11:17:19;;;;;;;0.63;0.30;;;15.90;58.00;;;;;;5032286;28;20666;-58
2022/06/10 11:19:56;;;;;;;2.20;0.40;;;15.90;58.00;;;;;;5019600;28;20218;-57
2022/06/10 11:22:38;;;;;;;3.55;0.57;;;15.90;58.00;;;;;;5031091;28;20203;-58
2022/06/10 11:25:36;;;;;;;2.33;0.52;;;15.90;57.90;;;;;;5031248;28;20222;-59
2022/06/10 11:28:19;;;;;;;1.83;0.63;;;15.90;57.90;;;;;;4986383;28;20217;-58
2022/06/10 11:30:50;;;;;;;1.50;0.40;;;15.90;57.80;;;;;;5010215;28;20200;-58
2022/06/10 11:33:26;;;;;;;3.80;0.60;;;15.90;57.80;;;;;;5011185;28;20236;-58
2022/06/10 11:36:13;;;;;;;1.50;0.30;;;15.90;57.80;;;;;;5010757;28;20716;-59
2022/06/10 11:38:52;;;;;;;0.80;0.50;;;15.80;57.80;;;;;;5011044;28;20724;-58
2022/06/10 11:41:31;;;;;;;2.63;0.60;;;15.80;57.80;;;;;;5010919;28;20239;-61
2022/06/10 11:44:13;;;;;;;1.02;0.50;;;15.80;57.80;;;;;;5010541;28;20200;-60
2022/06/10 11:46:50;;;;;;;2.28;0.50;;;15.80;57.80;;;;;;4990876;28;20208;-59
2022/06/10 11:49:26;;;;;;;5.40;0.70;;;15.80;57.80;;;;;;4990388;28;20221;-61
2022/06/10 11:52:01;;;;;;;1.95;0.80;;;15.80;57.70;;;;;;4990674;28;20209;-59
2022/06/10 11:54:39;;;;;;;2.08;0.70;;;15.80;57.70;;;;;;4991027;28;20203;-60
2022/06/10 12:00:16;;;;;;;2.72;1.30;;;15.80;57.70;;;;;;4998078;28;20211;-60
2022/06/10 12:02:52;;;;;;;1.50;0.98;;;15.80;57.70;;;;;;5012647;28;20275;-60
2022/06/10 12:05:29;;;;;;;3.22;1.25;;;15.80;57.70;;;;;;5009599;28;20204;-61
2022/06/10 12:08:09;;;;;;;3.55;1.33;;;15.70;57.60;;;;;;5009783;28;20208;-62
2022/06/10 12:10:50;;;;;;;2.92;1.17;;;15.80;57.70;;;;;;5009870;28;20231;-61
2022/06/10 12:13:24;;;;;;;2.55;1.30;;;15.70;57.60;;;;;;5010105;28;20204;-63
2022/06/10 12:15:58;;;;;;;2.22;1.48;;;15.70;57.60;;;;;;5008481;28;20571;-60
2022/06/10 12:18:31;;;;;;;2.42;1.65;;;15.70;57.60;;;;;;5010031;28;20216;-60
2022/06/10 12:21:05;;;;;;;3.72;1.73;;;15.70;57.60;;;;;;5009811;28;20601;-62
2022/06/10 12:23:39;;;;;;;2.30;1.50;;;15.70;57.60;;;;;;5009828;28;20566;-62
2022/06/10 12:26:17;;;;;;;2.28;1.73;;;15.60;57.60;;;;;;5009351;28;20201;-61
2022/06/10 12:28:54;;;;;;;3.72;1.80;;;15.60;57.60;;;;;;5009205;28;20224;-59
2022/06/10 12:31:37;;;;;;;2.78;1.75;;;15.60;57.50;;;;;;5008757;28;20208;-58
2022/06/10 12:34:16;;;;;;;4.05;1.90;;;15.60;57.60;;;;;;5009633;28;20196;-58
2022/06/10 12:36:53;;;;;;;3.70;2.50;;;15.60;57.50;;;;;;5009667;28;20211;-58
2022/06/10 12:39:28;;;;;;;4.70;2.00;;;15.60;57.50;;;;;;5009848;28;20195;-59
2022/06/10 12:42:06;;;;;;;3.85;1.90;;;15.60;57.50;;;;;;5006373;28;20196;-59
2022/06/10 12:44:42;;;;;;;3.95;2.08;;;15.50;57.50;;;;;;4999561;28;20201;-60
2022/06/10 12:47:16;;;;;;;5.55;2.17;;;15.50;57.50;;;;;;5010146;28;20227;-57
2022/06/10 12:49:49;;;;;;;4.20;1.80;;;15.50;57.50;;;;;;5010146;28;20770;-59
2022/06/10 12:52:41;;;;;;;3.38;1.98;;;15.50;57.50;;;;;;5009871;28;20675;-58
2022/06/10 12:55:27;;;;;;;5.60;1.92;;;15.40;57.50;;;;;;5009709;28;20299;-58
2022/06/10 12:57:58;;;;;;;4.80;1.98;;;15.50;57.50;;;;;;5009728;28;20240;-58
2022/06/10 13:00:41;;;;;;;4.18;1.98;;;15.50;57.50;;;;;;5009091;28;20652;-58
2022/06/10 13:03:33;;;;;;;5.05;2.38;;;15.40;57.50;;;;;;5009246;28;20220;-60
2022/06/10 13:06:25;;;;;;;4.68;2.38;;;15.40;57.50;;;;;;5004161;28;20208;-59
2022/06/10 13:08:58;;;;;;;5.80;2.90;;;15.40;57.40;;;;;;5002278;28;20251;-59
2022/06/10 13:11:38;;;;;;;7.32;2.55;;;15.40;57.40;;;;;;5009989;28;20243;-60
2022/06/10 13:14:25;;;;;;;4.70;2.30;;;15.40;57.30;;;;;;5009612;28;20203;-59
2022/06/10 13:17:22;;;;;;;6.30;2.50;;;15.40;57.30;;;;;;5009072;28;20205;-58
2022/06/10 13:20:23;;;;;;;3.95;2.47;;;15.40;57.20;;;;;;5011714;28;20418;-58
2022/06/10 13:23:18;;;;;;;5.65;2.40;;;15.30;57.20;;;;;;4977081;28;20192;-58
2022/06/10 13:25:51;;;;;;;5.97;2.42;;;15.30;57.10;;;;;;5009621;28;20204;-60
2022/06/10 13:28:28;;;;;;;5.05;2.45;;;15.30;57.10;;;;;;5009039;28;20243;-58
2022/06/10 13:31:14;;;;;;;4.65;2.15;;;15.30;57.10;;;;;;5008314;28;20239;-59
2022/06/10 13:33:59;;;;;;;6.53;2.70;;;15.30;57.10;;;;;;5009557;28;20794;-60
2022/06/10 13:36:32;;;;;;;4.32;2.50;;;15.30;57.10;;;;;;5011919;28;20201;-61
2022/06/10 13:39:04;;;;;;;6.57;2.28;;;15.30;57.00;;;;;;5009703;28;20225;-57
2022/06/10 13:41:52;;;;;;;7.15;2.30;;;15.30;57.00;;;;;;5009578;28;20220;-57
2022/06/10 13:44:36;;;;;;;5.35;2.28;;;15.30;57.00;;;;;;5013173;28;20204;-60
2022/06/10 13:47:20;;;;;;;5.95;2.03;;;15.30;56.90;;;;;;5012769;28;20307;-59
2022/06/10 13:50:17;;;;;;;4.18;1.98;;;15.30;56.90;;;;;;5012598;28;20228;-58
2022/06/10 13:52:54;;;;;;;4.10;2.33;;;15.30;56.90;;;;;;5012727;28;20224;-59
2022/06/10 13:55:29;;;;;;;6.10;2.28;;;15.30;56.80;;;;;;5012701;28;20618;-59
2022/06/10 13:58:02;;;;;;;3.47;1.92;;;15.20;56.80;;;;;;5012805;28;20216;-57